Time;durP1;ratioP1;P1;durP2;ratioP2;P2;SDS_P1;SDS_P2;PMS_P1;PMS_P2;Temp;Humidity;BMP_temperature;BMP_pressure;BME280_temperature;BME280_humidity;BME280_pressure;Samples;Min_cycle;Max_cycle;Signal;HPM_P1;HPM_P2
2022/12/10 00:00:00;;;;;;;;;;;1.10;99.90;;;;;;4991450;28;19917;-65
2022/12/10 00:02:26;;;;;;;;;;;1.10;99.90;;;;;;5024966;28;20410;-66
2022/12/10 00:04:51;;;;;;;;;;;1.00;99.90;;;;;;5024248;28;20660;-66
2022/12/10 00:07:17;;;;;;;;;;;1.00;99.90;;;;;;4995863;28;20402;-66
2022/12/10 00:09:43;;;;;;;;;;;1.00;99.90;;;;;;5026421;28;19959;-66
2022/12/10 00:12:09;;;;;;;;;;;1.10;99.90;;;;;;5023960;28;20017;-66
2022/12/10 00:14:34;;;;;;;;;;;1.00;99.90;;;;;;5023078;28;19999;-65
2022/12/10 00:17:00;;;;;;;;;;;1.00;99.90;;;;;;5024352;28;19951;-66
2022/12/10 00:19:25;;;;;;;;;;;1.00;99.90;;;;;;5024426;28;20323;-66
2022/12/10 00:21:51;;;;;;;;;;;0.90;99.90;;;;;;5019522;28;20473;-65
2022/12/10 00:24:17;;;;;;;;;;;0.90;99.90;;;;;;5026628;28;19913;-65
2022/12/10 00:26:45;;;;;;;;;;;1.00;99.90;;;;;;5011186;28;20526;-65
2022/12/10 00:29:11;;;;;;;;;;;1.00;99.90;;;;;;5025175;28;19928;-66
2022/12/10 00:31:37;;;;;;;;;;;1.00;99.90;;;;;;5026173;28;19913;-67
2022/12/10 00:34:03;;;;;;;;;;;1.00;99.90;;;;;;5005983;28;19920;-66
2022/12/10 00:36:33;;;;;;;;;;;1.00;99.90;;;;;;5030630;28;19913;-65
2022/12/10 00:38:59;;;;;;;;;;;1.00;99.90;;;;;;5029341;28;19924;-66
2022/12/10 00:41:24;;;;;;;;;;;1.00;99.90;;;;;;5026143;28;19920;-66
2022/12/10 00:43:51;;;;;;;;;;;1.00;99.90;;;;;;5028064;28;20368;-65
2022/12/10 00:46:17;;;;;;;;;;;1.00;99.90;;;;;;5024752;28;20011;-65
2022/12/10 00:48:42;;;;;;;;;;;1.00;99.90;;;;;;5020071;28;19920;-66
2022/12/10 00:51:10;;;;;;;;;;;1.00;99.90;;;;;;5025225;28;19986;-66
2022/12/10 00:53:36;;;;;;;;;;;1.00;99.90;;;;;;5002608;28;19914;-67
2022/12/10 00:56:03;;;;;;;;;;;1.00;99.90;;;;;;5025555;28;20314;-65
2022/12/10 00:58:29;;;;;;;;;;;1.00;99.90;;;;;;5028347;28;19917;-65
2022/12/10 01:01:05;;;;;;;;;;;1.00;99.90;;;;;;5028160;28;19913;-67
2022/12/10 01:03:31;;;;;;;;;;;1.00;99.90;;;;;;4999192;28;19917;-67
2022/12/10 01:05:56;;;;;;;;;;;1.00;99.90;;;;;;5028665;28;20216;-66
2022/12/10 01:08:22;;;;;;;;;;;1.00;99.90;;;;;;5028974;28;19913;-66
2022/12/10 01:10:52;;;;;;;;;;;1.00;99.90;;;;;;5025605;28;19975;-66
2022/12/10 01:13:17;;;;;;;;;;;0.90;99.90;;;;;;5028261;28;20008;-66
2022/12/10 01:15:43;;;;;;;;;;;1.00;99.90;;;;;;5027734;28;19999;-65
2022/12/10 01:18:09;;;;;;;;;;;0.90;99.90;;;;;;5027030;28;20292;-66
2022/12/10 01:20:36;;;;;;;;;;;1.00;99.90;;;;;;5028495;28;19913;-66
2022/12/10 01:23:01;;;;;;;;;;;0.90;99.90;;;;;;5017357;28;19909;-65
2022/12/10 01:25:27;;;;;;;;;;;0.90;99.90;;;;;;5028917;28;20002;-66
2022/12/10 01:27:52;;;;;;;;;;;0.90;99.90;;;;;;5024122;28;19978;-65
2022/12/10 01:30:18;;;;;;;;;;;0.90;99.90;;;;;;5028921;28;19953;-65
2022/12/10 01:32:44;;;;;;;;;;;0.90;99.90;;;;;;5027506;28;20342;-66
2022/12/10 01:35:09;;;;;;;;;;;0.90;99.90;;;;;;5027149;28;19913;-66
2022/12/10 01:37:35;;;;;;;;;;;0.90;99.90;;;;;;5028680;28;19913;-66
2022/12/10 01:40:01;;;;;;;;;;;0.90;99.90;;;;;;5026302;28;19940;-66
2022/12/10 01:42:26;;;;;;;;;;;0.90;99.90;;;;;;5027289;28;19975;-67
2022/12/10 01:44:56;;;;;;;;;;;1.00;99.90;;;;;;5004238;28;19933;-67
2022/12/10 01:47:21;;;;;;;;;;;1.00;99.90;;;;;;5021093;28;19956;-67
2022/12/10 01:49:47;;;;;;;;;;;1.00;99.90;;;;;;5027563;28;19971;-67
2022/12/10 01:52:13;;;;;;;;;;;1.00;99.90;;;;;;5021893;28;19976;-65
2022/12/10 01:54:43;;;;;;;;;;;1.00;99.90;;;;;;5012081;28;19916;-66
2022/12/10 01:57:13;;;;;;;;;;;0.90;99.90;;;;;;4990953;28;20000;-67
2022/12/10 01:59:38;;;;;;;;;;;0.90;99.90;;;;;;5006149;28;19923;-66
2022/12/10 02:02:20;;;;;;;;;;;0.90;99.90;;;;;;5009733;28;19913;-67
2022/12/10 02:05:04;;;;;;;;;;;0.90;99.90;;;;;;5007106;28;19913;-66
2022/12/10 02:07:37;;;;;;;;;;;0.90;99.90;;;;;;5026633;28;19923;-68
2022/12/10 02:10:17;;;;;;;;;;;0.90;99.90;;;;;;5005451;28;19933;-67
2022/12/10 02:12:46;;;;;;;;;;;0.90;99.90;;;;;;5026960;28;19913;-66
2022/12/10 02:15:13;;;;;;;;;;;1.00;99.90;;;;;;5026658;28;19920;-66
2022/12/10 02:17:45;;;;;;;;;;;1.00;99.90;;;;;;5008230;28;20430;-65
2022/12/10 02:20:11;;;;;;;;;;;0.90;99.90;;;;;;5031471;28;19917;-65
2022/12/10 02:23:00;;;;;;;;;;;0.90;99.90;;;;;;5025119;28;19913;-67
2022/12/10 02:25:39;;;;;;;;;;;0.90;99.90;;;;;;5024299;28;20003;-66
2022/12/10 02:28:07;;;;;;;;;;;0.90;99.90;;;;;;5026172;28;19909;-65
2022/12/10 02:30:33;;;;;;;;;;;0.80;99.90;;;;;;5024283;28;19917;-65
2022/12/10 02:32:59;;;;;;;;;;;0.90;99.90;;;;;;5010732;28;19913;-65
2022/12/10 02:35:26;;;;;;;;;;;0.90;99.90;;;;;;5026366;28;20239;-66
2022/12/10 02:37:53;;;;;;;;;;;0.90;99.90;;;;;;5008822;28;19931;-66
2022/12/10 02:40:20;;;;;;;;;;;0.90;99.90;;;;;;5026392;28;19942;-66
2022/12/10 02:42:46;;;;;;;;;;;0.90;99.90;;;;;;5020591;28;19913;-66
2022/12/10 02:45:12;;;;;;;;;;;0.90;99.90;;;;;;5009036;28;19913;-66
2022/12/10 02:47:38;;;;;;;;;;;1.00;99.90;;;;;;5024392;28;19979;-66
2022/12/10 02:50:03;;;;;;;;;;;1.00;99.90;;;;;;5026098;28;20007;-66
2022/12/10 02:52:29;;;;;;;;;;;0.90;99.90;;;;;;5025527;28;19921;-66
2022/12/10 02:54:55;;;;;;;;;;;0.90;99.90;;;;;;5027489;28;19913;-66
2022/12/10 02:57:35;;;;;;;;;;;1.00;99.90;;;;;;5008732;28;19913;-66
2022/12/10 03:00:04;;;;;;;;;;;1.00;99.90;;;;;;5026665;28;19964;-65
2022/12/10 03:02:48;;;;;;;;;;;1.00;99.90;;;;;;5008829;28;19913;-65
2022/12/10 03:05:53;;;;;;;;;;;1.00;99.90;;;;;;5021789;28;19923;-66
2022/12/10 03:08:19;;;;;;;;;;;1.00;99.90;;;;;;5018973;28;19924;-66
2022/12/10 03:10:51;;;;;;;;;;;0.90;99.90;;;;;;5008407;28;19927;-66
2022/12/10 03:13:17;;;;;;;;;;;0.90;99.90;;;;;;4999011;28;19926;-66
2022/12/10 03:15:42;;;;;;;;;;;0.90;99.90;;;;;;5023473;28;20323;-65
2022/12/10 03:18:08;;;;;;;;;;;0.90;99.90;;;;;;5008843;28;19927;-67
2022/12/10 03:20:36;;;;;;;;;;;0.90;99.90;;;;;;5022527;28;19916;-65
2022/12/10 03:23:01;;;;;;;;;;;0.90;99.90;;;;;;5009590;28;19982;-65
2022/12/10 03:25:27;;;;;;;;;;;0.90;99.90;;;;;;5025533;28;19920;-65
2022/12/10 03:27:54;;;;;;;;;;;1.00;99.90;;;;;;5024952;28;19967;-66
2022/12/10 03:30:19;;;;;;;;;;;1.00;99.90;;;;;;5009453;28;20257;-66
2022/12/10 03:32:45;;;;;;;;;;;0.90;99.90;;;;;;5027014;28;19939;-66
2022/12/10 03:35:10;;;;;;;;;;;1.00;99.90;;;;;;5018081;28;19913;-66
2022/12/10 03:37:36;;;;;;;;;;;1.00;99.90;;;;;;5023172;28;19952;-67
2022/12/10 03:40:02;;;;;;;;;;;1.00;99.90;;;;;;5026056;28;20386;-66
2022/12/10 03:42:28;;;;;;;;;;;1.00;99.90;;;;;;5020342;28;19921;-67
2022/12/10 03:44:54;;;;;;;;;;;1.00;99.90;;;;;;5025375;28;19970;-67
2022/12/10 03:47:19;;;;;;;;;;;1.00;99.90;;;;;;5024301;28;19913;-67
2022/12/10 03:49:45;;;;;;;;;;;1.00;99.90;;;;;;5008799;28;20398;-66
2022/12/10 03:52:11;;;;;;;;;;;1.00;99.90;;;;;;5022817;28;19939;-66
2022/12/10 03:54:36;;;;;;;;;;;0.90;99.90;;;;;;5003248;28;19975;-65
2022/12/10 03:57:02;;;;;;;;;;;1.00;99.90;;;;;;5015422;28;19919;-65
2022/12/10 03:59:27;;;;;;;;;;;0.90;99.90;;;;;;5024845;28;19932;-65
2022/12/10 04:01:53;;;;;;;;;;;0.90;99.90;;;;;;5021871;28;20462;-67
2022/12/10 04:04:19;;;;;;;;;;;0.90;99.90;;;;;;5006465;28;20342;-66
2022/12/10 04:06:44;;;;;;;;;;;1.00;99.90;;;;;;5025145;28;19979;-67
2022/12/10 04:09:10;;;;;;;;;;;0.90;99.90;;;;;;5020951;28;19935;-66
2022/12/10 04:11:36;;;;;;;;;;;1.00;99.90;;;;;;5024664;28;19920;-66
2022/12/10 04:16:46;;;;;;;;;;;1.00;99.90;;;;;;5038629;28;19913;-68
2022/12/10 04:19:12;;;;;;;;;;;0.90;99.90;;;;;;5025823;28;20255;-66
2022/12/10 04:27:11;;;;;;;;;;;1.00;99.90;;;;;;5025352;28;20270;-67
2022/12/10 04:29:36;;;;;;;;;;;0.90;99.90;;;;;;5024329;28;19916;-67
2022/12/10 04:32:02;;;;;;;;;;;0.90;99.90;;;;;;5031335;28;20297;-67
2022/12/10 04:34:28;;;;;;;;;;;0.90;99.90;;;;;;5007548;28;20361;-66
2022/12/10 04:36:53;;;;;;;;;;;0.90;99.90;;;;;;5004835;28;19909;-66
2022/12/10 04:39:19;;;;;;;;;;;0.90;99.90;;;;;;5022356;28;19924;-66
2022/12/10 04:41:45;;;;;;;;;;;0.90;99.90;;;;;;5004872;28;19913;-66
2022/12/10 04:44:11;;;;;;;;;;;0.90;99.90;;;;;;5007040;28;19923;-66
2022/12/10 04:46:36;;;;;;;;;;;0.90;99.90;;;;;;5020556;28;19909;-66
2022/12/10 04:49:06;;;;;;;;;;;0.90;99.90;;;;;;5019104;28;19917;-66
2022/12/10 04:51:31;;;;;;;;;;;0.90;99.90;;;;;;5025400;28;19912;-71
2022/12/10 04:53:57;;;;;;;;;;;0.90;99.90;;;;;;5023056;28;19920;-72
2022/12/10 04:56:23;;;;;;;;;;;0.90;99.90;;;;;;5022634;28;20379;-72
2022/12/10 04:58:48;;;;;;;;;;;0.90;99.90;;;;;;5024376;28;19952;-72
2022/12/10 05:01:14;;;;;;;;;;;0.90;99.90;;;;;;5022071;28;19924;-71
2022/12/10 05:03:39;;;;;;;;;;;1.00;99.90;;;;;;5019382;28;20311;-72
2022/12/10 05:06:06;;;;;;;;;;;0.90;99.90;;;;;;5018669;28;20262;-72
2022/12/10 05:08:32;;;;;;;;;;;0.90;99.90;;;;;;5024968;28;19913;-72
2022/12/10 05:11:01;;;;;;;;;;;0.90;99.90;;;;;;5028046;28;20426;-71
2022/12/10 05:13:27;;;;;;;;;;;0.90;99.90;;;;;;5015753;28;19945;-72
2022/12/10 05:15:53;;;;;;;;;;;0.90;99.90;;;;;;5028107;28;20398;-73
2022/12/10 05:18:18;;;;;;;;;;;0.90;99.90;;;;;;5028204;28;19917;-71
2022/12/10 05:20:44;;;;;;;;;;;0.90;99.90;;;;;;5024332;28;19923;-72
2022/12/10 05:23:28;;;;;;;;;;;0.90;99.90;;;;;;5025829;28;19909;-71
2022/12/10 05:26:13;;;;;;;;;;;0.90;99.90;;;;;;5028854;28;19998;-71
2022/12/10 05:28:39;;;;;;;;;;;0.90;99.90;;;;;;5028158;28;20246;-72
2022/12/10 05:31:05;;;;;;;;;;;0.80;99.90;;;;;;5029086;28;20004;-71
2022/12/10 05:33:30;;;;;;;;;;;0.80;99.90;;;;;;5028486;28;20016;-72
2022/12/10 05:35:57;;;;;;;;;;;0.80;99.90;;;;;;5027838;28;19913;-72
2022/12/10 05:38:23;;;;;;;;;;;0.80;99.90;;;;;;5027288;28;19920;-72
2022/12/10 05:40:48;;;;;;;;;;;0.80;99.90;;;;;;5023657;28;19947;-72
2022/12/10 05:43:14;;;;;;;;;;;0.80;99.90;;;;;;5027324;28;19999;-72
2022/12/10 05:45:40;;;;;;;;;;;0.70;99.90;;;;;;5023499;28;19920;-71
2022/12/10 05:48:05;;;;;;;;;;;0.70;99.90;;;;;;5010679;28;19948;-72
2022/12/10 05:50:31;;;;;;;;;;;0.70;99.90;;;;;;5011943;28;19917;-71
2022/12/10 05:52:57;;;;;;;;;;;0.70;99.90;;;;;;5026229;28;19923;-72
2022/12/10 05:55:23;;;;;;;;;;;0.70;99.90;;;;;;5029270;28;19921;-72
2022/12/10 05:57:48;;;;;;;;;;;0.70;99.90;;;;;;5027620;28;20370;-72
2022/12/10 06:00:14;;;;;;;;;;;0.80;99.90;;;;;;5026521;28;20365;-71
2022/12/10 06:02:40;;;;;;;;;;;0.70;99.90;;;;;;5010981;28;19971;-72
2022/12/10 06:05:05;;;;;;;;;;;0.80;99.90;;;;;;5010819;28;20027;-72
2022/12/10 06:07:31;;;;;;;;;;;0.80;99.90;;;;;;5021086;28;19971;-72
2022/12/10 06:09:57;;;;;;;;;;;0.70;99.90;;;;;;5026442;28;20036;-72
2022/12/10 06:12:22;;;;;;;;;;;0.70;99.90;;;;;;5027256;28;19959;-72
2022/12/10 06:14:48;;;;;;;;;;;0.70;99.90;;;;;;5027336;28;19948;-72
2022/12/10 06:17:13;;;;;;;;;;;0.70;99.90;;;;;;5028628;28;19917;-72
2022/12/10 06:19:39;;;;;;;;;;;0.70;99.90;;;;;;5020861;28;20016;-72
2022/12/10 06:22:04;;;;;;;;;;;0.70;99.90;;;;;;5017422;28;20465;-72
2022/12/10 06:24:30;;;;;;;;;;;0.70;99.90;;;;;;5025510;28;19913;-72
2022/12/10 06:26:56;;;;;;;;;;;0.70;99.90;;;;;;5026824;28;19953;-72
2022/12/10 06:29:21;;;;;;;;;;;0.70;99.90;;;;;;5025758;28;20242;-72
2022/12/10 06:31:47;;;;;;;;;;;0.70;99.90;;;;;;5023899;28;19913;-73
2022/12/10 06:34:13;;;;;;;;;;;0.70;99.90;;;;;;5026969;28;19944;-72
2022/12/10 06:36:38;;;;;;;;;;;0.70;99.90;;;;;;5024734;28;19969;-73
2022/12/10 06:39:04;;;;;;;;;;;0.80;99.90;;;;;;5027170;28;20028;-73
2022/12/10 06:41:29;;;;;;;;;;;0.70;99.90;;;;;;5022440;28;19967;-73
2022/12/10 06:43:58;;;;;;;;;;;0.70;99.90;;;;;;5025157;28;19913;-72
2022/12/10 06:46:23;;;;;;;;;;;0.70;99.90;;;;;;5024138;28;19913;-72
2022/12/10 06:48:49;;;;;;;;;;;0.70;99.90;;;;;;5025514;28;19917;-72
2022/12/10 06:51:17;;;;;;;;;;;0.70;99.90;;;;;;5027393;28;20000;-71
2022/12/10 06:53:43;;;;;;;;;;;0.70;99.90;;;;;;5011871;28;20003;-72
2022/12/10 06:56:11;;;;;;;;;;;0.70;99.90;;;;;;5027325;28;19917;-72
2022/12/10 06:58:37;;;;;;;;;;;0.70;99.90;;;;;;5027075;28;20021;-71
2022/12/10 07:01:06;;;;;;;;;;;0.60;99.90;;;;;;5024575;28;19955;-72
2022/12/10 07:03:32;;;;;;;;;;;0.60;99.90;;;;;;5027992;28;19915;-76
2022/12/10 07:05:58;;;;;;;;;;;0.60;99.90;;;;;;5011341;28;19921;-77
2022/12/10 07:08:24;;;;;;;;;;;0.60;99.90;;;;;;5020941;28;19913;-75
2022/12/10 07:10:49;;;;;;;;;;;0.60;99.90;;;;;;5006330;28;19957;-73
2022/12/10 07:13:15;;;;;;;;;;;0.60;99.90;;;;;;5025157;28;20342;-73
2022/12/10 07:15:40;;;;;;;;;;;0.60;99.90;;;;;;5024402;28;20358;-73
2022/12/10 07:18:06;;;;;;;;;;;0.60;99.90;;;;;;5026345;28;19917;-72
2022/12/10 07:20:32;;;;;;;;;;;0.50;99.90;;;;;;5025029;28;19917;-72
2022/12/10 07:22:57;;;;;;;;;;;0.60;99.90;;;;;;5025809;28;20382;-72
2022/12/10 07:25:23;;;;;;;;;;;0.60;99.90;;;;;;5024059;28;20428;-71
2022/12/10 07:27:48;;;;;;;;;;;0.60;99.90;;;;;;5027243;28;19917;-73
2022/12/10 07:30:14;;;;;;;;;;;0.60;99.90;;;;;;5025468;28;20027;-73
2022/12/10 07:32:40;;;;;;;;;;;0.60;99.90;;;;;;5024262;28;19924;-72
2022/12/10 07:35:05;;;;;;;;;;;0.60;99.90;;;;;;5021587;28;19909;-73
2022/12/10 07:37:31;;;;;;;;;;;0.50;99.90;;;;;;5026518;28;20000;-72
2022/12/10 07:39:57;;;;;;;;;;;0.50;99.90;;;;;;5025468;28;19967;-72
2022/12/10 07:42:22;;;;;;;;;;;0.50;99.90;;;;;;5022665;28;20010;-72
2022/12/10 07:44:48;;;;;;;;;;;0.50;99.90;;;;;;5023055;28;19924;-72
2022/12/10 07:47:14;;;;;;;;;;;0.50;99.90;;;;;;5008181;28;19913;-72
2022/12/10 07:49:39;;;;;;;;;;;0.50;99.90;;;;;;5025401;28;19917;-73
2022/12/10 07:52:05;;;;;;;;;;;0.50;99.90;;;;;;5024134;28;20008;-71
2022/12/10 07:54:30;;;;;;;;;;;0.60;99.90;;;;;;5004735;28;19920;-72
2022/12/10 07:56:56;;;;;;;;;;;0.50;99.90;;;;;;5024922;28;19920;-72
2022/12/10 07:59:22;;;;;;;;;;;0.50;99.90;;;;;;5025335;28;19924;-71
2022/12/10 08:01:49;;;;;;;;;;;0.60;99.90;;;;;;5025514;28;20311;-72
2022/12/10 08:04:14;;;;;;;;;;;0.60;99.90;;;;;;5025514;28;19983;-72
2022/12/10 08:06:40;;;;;;;;;;;0.50;99.90;;;;;;5023899;28;20006;-72
2022/12/10 08:09:06;;;;;;;;;;;0.50;99.90;;;;;;5025189;28;20003;-72
2022/12/10 08:11:32;;;;;;;;;;;0.50;99.90;;;;;;5014211;28;19952;-72
2022/12/10 08:13:58;;;;;;;;;;;0.50;99.90;;;;;;5006178;28;20724;-71
2022/12/10 08:16:25;;;;;;;;;;;0.50;99.90;;;;;;5024805;28;20224;-72
2022/12/10 08:18:51;;;;;;;;;;;0.50;99.90;;;;;;5022776;28;19921;-72
2022/12/10 08:21:17;;;;;;;;;;;0.50;99.90;;;;;;5009382;28;20381;-72
2022/12/10 08:23:43;;;;;;;;;;;0.40;99.90;;;;;;5026350;28;19943;-72
2022/12/10 08:26:09;;;;;;;;;;;0.40;99.90;;;;;;5025472;28;20330;-72
2022/12/10 08:28:35;;;;;;;;;;;0.40;99.90;;;;;;5025793;28;19986;-72
2022/12/10 08:31:01;;;;;;;;;;;0.50;99.90;;;;;;5028075;28;20497;-72
2022/12/10 08:33:26;;;;;;;;;;;0.50;99.90;;;;;;5019548;28;19919;-72
2022/12/10 08:35:52;;;;;;;;;;;0.50;99.90;;;;;;5024621;28;19916;-72
2022/12/10 08:38:18;;;;;;;;;;;0.60;99.90;;;;;;5020132;28;20232;-72
2022/12/10 08:40:44;;;;;;;;;;;0.50;99.90;;;;;;5026756;28;20011;-72
2022/12/10 08:43:09;;;;;;;;;;;0.50;99.90;;;;;;5025238;28;19998;-73
2022/12/10 08:45:35;;;;;;;;;;;0.50;99.90;;;;;;5029079;28;19913;-72
2022/12/10 08:48:01;;;;;;;;;;;0.50;99.90;;;;;;5031645;28;19912;-72
2022/12/10 08:50:27;;;;;;;;;;;0.50;99.90;;;;;;5032053;28;19917;-73
2022/12/10 08:52:52;;;;;;;;;;;0.50;99.90;;;;;;5028892;28;19920;-73
2022/12/10 08:55:18;;;;;;;;;;;0.50;99.90;;;;;;5031500;28;19909;-72
2022/12/10 08:57:43;;;;;;;;;;;0.50;99.90;;;;;;5031852;28;19913;-72
2022/12/10 09:00:09;;;;;;;;;;;0.60;99.90;;;;;;5007628;28;20767;-72
2022/12/10 09:02:35;;;;;;;;;;;0.60;99.90;;;;;;5032453;28;20004;-72
2022/12/10 09:05:01;;;;;;;;;;;0.60;99.90;;;;;;5011474;28;19913;-72
2022/12/10 09:07:26;;;;;;;;;;;0.50;99.90;;;;;;5031729;28;19912;-72
2022/12/10 09:09:52;;;;;;;;;;;0.60;99.90;;;;;;5031715;28;19966;-72
2022/12/10 09:12:18;;;;;;;;;;;0.60;99.90;;;;;;5032253;28;19920;-72
2022/12/10 09:14:43;;;;;;;;;;;0.50;99.90;;;;;;5026475;28;19909;-72
2022/12/10 09:17:09;;;;;;;;;;;0.70;99.90;;;;;;5030623;28;20290;-73
2022/12/10 09:19:34;;;;;;;;;;;0.60;99.90;;;;;;5029032;28;20032;-72
2022/12/10 09:22:00;;;;;;;;;;;0.60;99.90;;;;;;5014953;28;20003;-72
2022/12/10 09:24:26;;;;;;;;;;;0.60;99.90;;;;;;5021675;28;19913;-72
2022/12/10 09:26:51;;;;;;;;;;;0.60;99.90;;;;;;5026361;28;20588;-72
2022/12/10 09:29:17;;;;;;;;;;;0.60;99.90;;;;;;5031507;28;19923;-72
2022/12/10 09:31:43;;;;;;;;;;;0.60;99.90;;;;;;5030862;28;19941;-72
2022/12/10 09:34:08;;;;;;;;;;;0.70;99.90;;;;;;5031450;28;19924;-72
2022/12/10 09:36:34;;;;;;;;;;;0.60;99.90;;;;;;5024286;28;19913;-72
2022/12/10 09:38:59;;;;;;;;;;;0.60;99.90;;;;;;5031089;28;19932;-72
2022/12/10 09:41:28;;;;;;;;;;;0.60;99.90;;;;;;5031179;28;20346;-72
2022/12/10 09:44:03;;;;;;;;;;;0.70;99.90;;;;;;5031410;28;19912;-72
2022/12/10 09:46:47;;;;;;;;;;;0.70;99.90;;;;;;5013737;28;20365;-72
2022/12/10 09:49:25;;;;;;;;;;;0.60;99.90;;;;;;5011609;28;19952;-72
2022/12/10 09:51:50;;;;;;;;;;;0.60;99.90;;;;;;5030566;28;20016;-72
2022/12/10 09:54:19;;;;;;;;;;;0.60;99.90;;;;;;5011360;28;20000;-72
2022/12/10 09:56:44;;;;;;;;;;;0.60;99.90;;;;;;5030674;28;19913;-73
2022/12/10 09:59:16;;;;;;;;;;;0.60;99.90;;;;;;5022786;28;19913;-72
2022/12/10 10:01:41;;;;;;;;;;;0.60;99.90;;;;;;5024372;28;20301;-73
2022/12/10 10:04:08;;;;;;;;;;;0.60;99.90;;;;;;5015021;28;20027;-72
2022/12/10 10:06:33;;;;;;;;;;;0.60;99.90;;;;;;5030998;28;20032;-73
2022/12/10 10:09:00;;;;;;;;;;;0.70;99.90;;;;;;5030339;28;20664;-73
2022/12/10 10:11:30;;;;;;;;;;;0.70;99.90;;;;;;5026936;28;20016;-72
2022/12/10 10:14:00;;;;;;;;;;;0.70;99.90;;;;;;5031740;28;20321;-73
2022/12/10 10:16:52;;;;;;;;;;;0.60;99.90;;;;;;5014243;28;19913;-71
2022/12/10 10:19:19;;;;;;;;;;;0.70;99.90;;;;;;5025380;28;19913;-73
2022/12/10 10:21:45;;;;;;;;;;;0.70;99.90;;;;;;5014763;28;20284;-72
2022/12/10 10:24:18;;;;;;;;;;;0.70;99.90;;;;;;5026325;28;20632;-72
2022/12/10 10:26:45;;;;;;;;;;;0.70;99.90;;;;;;5029630;28;19968;-73
2022/12/10 10:29:12;;;;;;;;;;;0.70;99.90;;;;;;5030344;28;20516;-74
2022/12/10 10:31:39;;;;;;;;;;;0.70;99.90;;;;;;5010490;28;20403;-72
2022/12/10 10:34:05;;;;;;;;;;;0.70;99.90;;;;;;5027467;28;19999;-72
2022/12/10 10:36:32;;;;;;;;;;;0.80;99.90;;;;;;5030533;28;19913;-73
2022/12/10 10:39:07;;;;;;;;;;;0.80;99.90;;;;;;5028806;28;19968;-73
2022/12/10 10:41:35;;;;;;;;;;;0.80;99.90;;;;;;5029083;28;19912;-73
2022/12/10 10:44:01;;;;;;;;;;;0.80;99.90;;;;;;5030333;28;20307;-74
2022/12/10 10:46:27;;;;;;;;;;;0.70;99.90;;;;;;5029759;28;20018;-74
2022/12/10 10:48:53;;;;;;;;;;;0.60;99.90;;;;;;5027771;28;19913;-74
2022/12/10 10:51:20;;;;;;;;;;;0.70;99.90;;;;;;5013407;28;19964;-74
2022/12/10 10:53:52;;;;;;;;;;;0.60;99.90;;;;;;5006952;28;19913;-73
2022/12/10 10:56:24;;;;;;;;;;;0.60;99.90;;;;;;5013858;28;20275;-73
2022/12/10 10:58:55;;;;;;;;;;;0.70;99.90;;;;;;5027287;28;19913;-74
2022/12/10 11:01:20;;;;;;;;;;;0.70;99.90;;;;;;5013536;28;20015;-74
2022/12/10 11:03:50;;;;;;;;;;;0.70;99.90;;;;;;5024924;28;20024;-68
2022/12/10 11:06:16;;;;;;;;;;;0.60;99.90;;;;;;5029494;28;19916;-69
2022/12/10 11:08:42;;;;;;;;;;;0.60;99.90;;;;;;5006802;28;20710;-69
2022/12/10 11:11:31;;;;;;;;;;;0.60;99.90;;;;;;4993932;28;19928;-69
2022/12/10 11:14:12;;;;;;;;;;;0.50;99.90;;;;;;5028590;28;20290;-72
2022/12/10 11:16:38;;;;;;;;;;;0.60;99.90;;;;;;5029557;28;20370;-72
2022/12/10 11:19:05;;;;;;;;;;;0.60;99.90;;;;;;5018762;28;19979;-66
2022/12/10 11:21:31;;;;;;;;;;;0.50;99.90;;;;;;5028499;28;19909;-69
2022/12/10 11:23:57;;;;;;;;;;;0.60;99.90;;;;;;5023919;28;19910;-70
2022/12/10 11:26:23;;;;;;;;;;;0.60;99.90;;;;;;5026976;28;20015;-69
2022/12/10 11:28:56;;;;;;;;;;;0.70;99.90;;;;;;5027996;28;20048;-68
2022/12/10 11:31:34;;;;;;;;;;;0.60;99.90;;;;;;5029568;28;19917;-70
2022/12/10 11:33:59;;;;;;;;;;;0.60;99.90;;;;;;5027515;28;20396;-69
2022/12/10 11:36:25;;;;;;;;;;;0.70;99.90;;;;;;5030177;28;19913;-69
2022/12/10 11:39:13;;;;;;;;;;;0.70;99.90;;;;;;5029809;28;20548;-68
2022/12/10 11:42:05;;;;;;;;;;;0.70;99.90;;;;;;5024545;28;20012;-69
2022/12/10 11:44:50;;;;;;;;;;;0.70;99.90;;;;;;5010988;28;19940;-69
2022/12/10 11:47:22;;;;;;;;;;;0.70;99.90;;;;;;5028949;28;19912;-68
2022/12/10 11:49:54;;;;;;;;;;;0.70;99.90;;;;;;5020200;28;20264;-68
2022/12/10 11:52:26;;;;;;;;;;;0.70;99.90;;;;;;5028800;28;19916;-68
2022/12/10 11:54:57;;;;;;;;;;;0.70;99.90;;;;;;5029449;28;19913;-68
2022/12/10 11:57:26;;;;;;;;;;;0.60;99.90;;;;;;5028797;28;20302;-68
2022/12/10 11:59:52;;;;;;;;;;;0.60;99.90;;;;;;5027274;28;19921;-67
2022/12/10 12:02:25;;;;;;;;;;;0.50;99.90;;;;;;5029631;28;19924;-68
2022/12/10 12:05:10;;;;;;;;;;;0.50;99.90;;;;;;5022568;28;19917;-68
2022/12/10 12:07:39;;;;;;;;;;;0.30;99.90;;;;;;5024637;28;20642;-68
2022/12/10 12:10:11;;;;;;;;;;;0.40;99.90;;;;;;5028657;28;19952;-68
2022/12/10 12:12:41;;;;;;;;;;;0.40;99.90;;;;;;5022754;28;20031;-67
2022/12/10 12:15:17;;;;;;;;;;;0.40;99.90;;;;;;5028964;28;20988;-69
2022/12/10 12:17:48;;;;;;;;;;;0.40;99.90;;;;;;5027889;28;20325;-68
2022/12/10 12:20:30;;;;;;;;;;;0.40;99.90;;;;;;5022431;28;19913;-68
2022/12/10 12:22:58;;;;;;;;;;;0.40;99.90;;;;;;5028568;28;19913;-68
2022/12/10 12:25:27;;;;;;;;;;;0.40;99.90;;;;;;5009041;28;19968;-69
2022/12/10 12:27:55;;;;;;;;;;;0.30;99.90;;;;;;5022705;28;20300;-69
2022/12/10 12:30:21;;;;;;;;;;;0.30;99.90;;;;;;5028279;28;19917;-69
2022/12/10 12:32:47;;;;;;;;;;;0.40;99.90;;;;;;5008755;28;19913;-69
2022/12/10 12:35:14;;;;;;;;;;;0.40;99.90;;;;;;5029379;28;19913;-69
2022/12/10 12:37:41;;;;;;;;;;;0.40;99.90;;;;;;5028131;28;19928;-69
2022/12/10 12:40:10;;;;;;;;;;;0.40;99.90;;;;;;5011299;28;19913;-68
2022/12/10 12:42:36;;;;;;;;;;;0.40;99.90;;;;;;5023458;28;20066;-68
2022/12/10 12:45:03;;;;;;;;;;;0.40;99.90;;;;;;5029264;28;20007;-68
2022/12/10 12:47:48;;;;;;;;;;;0.40;99.90;;;;;;5011682;28;20510;-70
2022/12/10 12:50:22;;;;;;;;;;;0.40;99.90;;;;;;5021944;28;19970;-69
2022/12/10 12:52:52;;;;;;;;;;;0.50;99.90;;;;;;5001466;28;19910;-69
2022/12/10 12:55:22;;;;;;;;;;;0.50;99.90;;;;;;5011920;28;19913;-69
2022/12/10 12:58:09;;;;;;;;;;;0.50;99.90;;;;;;5026376;28;19920;-70
2022/12/10 13:00:35;;;;;;;;;;;0.50;99.90;;;;;;5025077;28;19913;-69
2022/12/10 13:03:13;;;;;;;;;;;0.50;99.90;;;;;;5028237;28;19913;-68
2022/12/10 13:05:38;;;;;;;;;;;0.40;99.90;;;;;;5028209;28;19967;-69
2022/12/10 13:08:19;;;;;;;;;;;0.40;99.90;;;;;;5026993;28;19913;-69
2022/12/10 13:10:48;;;;;;;;;;;0.40;99.90;;;;;;5027525;28;20036;-69
2022/12/10 13:13:33;;;;;;;;;;;0.40;99.90;;;;;;5028496;28;20311;-69
2022/12/10 13:16:18;;;;;;;;;;;0.40;99.90;;;;;;5023870;28;19921;-69
2022/12/10 13:18:44;;;;;;;;;;;0.40;99.90;;;;;;5024165;28;19909;-69
2022/12/10 13:21:17;;;;;;;;;;;0.40;99.90;;;;;;5027136;28;19920;-69
2022/12/10 13:23:50;;;;;;;;;;;0.40;99.90;;;;;;5015938;28;19920;-68
2022/12/10 13:26:29;;;;;;;;;;;0.40;99.90;;;;;;5009143;28;20251;-68
2022/12/10 13:28:55;;;;;;;;;;;0.40;99.90;;;;;;5013544;28;19924;-68
2022/12/10 13:31:22;;;;;;;;;;;0.40;99.90;;;;;;5031457;28;20281;-68
2022/12/10 13:33:47;;;;;;;;;;;0.40;99.90;;;;;;5025014;28;19966;-68
2022/12/10 13:36:13;;;;;;;;;;;0.50;99.90;;;;;;5032331;28;19913;-69
2022/12/10 13:38:40;;;;;;;;;;;0.40;99.90;;;;;;5026745;28;20071;-69
2022/12/10 13:46:55;;;;;;;;;;;0.40;99.90;;;;;;5028965;28;19923;-68
2022/12/10 13:49:21;;;;;;;;;;;0.40;99.90;;;;;;5031953;28;20315;-67
2022/12/10 13:51:53;;;;;;;;;;;0.40;99.90;;;;;;5030188;28;19925;-68
2022/12/10 13:54:36;;;;;;;;;;;0.40;99.90;;;;;;5030243;28;20377;-67
2022/12/10 13:57:02;;;;;;;;;;;0.40;99.90;;;;;;5031262;28;19999;-68
2022/12/10 13:59:43;;;;;;;;;;;0.30;99.90;;;;;;5013839;28;20055;-67
2022/12/10 14:02:21;;;;;;;;;;;0.40;99.90;;;;;;5031138;28;20346;-66
2022/12/10 14:05:11;;;;;;;;;;;0.40;99.90;;;;;;5027887;28;20346;-67
2022/12/10 14:07:37;;;;;;;;;;;0.40;99.90;;;;;;5025564;28;19913;-67
2022/12/10 14:10:03;;;;;;;;;;;0.40;99.90;;;;;;5030928;28;19917;-66
2022/12/10 14:12:30;;;;;;;;;;;0.40;99.90;;;;;;5027228;28;19909;-67
2022/12/10 14:14:57;;;;;;;;;;;0.40;99.90;;;;;;5023436;28;19913;-67
2022/12/10 14:17:24;;;;;;;;;;;0.30;99.90;;;;;;5030876;28;19913;-67
2022/12/10 14:19:50;;;;;;;;;;;0.40;99.90;;;;;;5022768;28;20387;-69
2022/12/10 14:22:17;;;;;;;;;;;0.40;99.90;;;;;;5013657;28;19966;-66
2022/12/10 14:24:43;;;;;;;;;;;0.40;99.90;;;;;;5030695;28;19913;-67
2022/12/10 14:27:11;;;;;;;;;;;0.40;99.90;;;;;;5030721;28;19923;-67
2022/12/10 14:29:37;;;;;;;;;;;0.40;99.90;;;;;;5029239;28;19916;-67
2022/12/10 14:32:02;;;;;;;;;;;0.40;99.90;;;;;;5031311;28;19913;-65
2022/12/10 14:34:28;;;;;;;;;;;0.40;99.90;;;;;;5019932;28;20517;-69
2022/12/10 14:36:54;;;;;;;;;;;0.40;99.90;;;;;;5029294;28;20366;-66
2022/12/10 14:39:21;;;;;;;;;;;0.40;99.90;;;;;;5006122;28;19951;-67
2022/12/10 14:41:50;;;;;;;;;;;0.40;99.90;;;;;;5030469;28;19979;-67
2022/12/10 14:44:16;;;;;;;;;;;0.40;99.90;;;;;;5030315;28;19995;-67
2022/12/10 14:46:42;;;;;;;;;;;0.40;99.90;;;;;;5021875;28;20003;-67
2022/12/10 14:49:15;;;;;;;;;;;0.40;99.90;;;;;;5029959;28;20421;-67